Monday, November 20, 2017, 2:43 AM EST
Back to Local

KFIT, Fitchburg, Fitchburg Municipal Airport

Location: Leominster, MA, United States Lat: 42.552
Local Time: 2:43 AM EST ( 7:43 GMT) Lon: -71.756
Time Zone: US/Eastern Elev: 347 ft

Show me the last for .
Show Decoded

2017-11-20 01:52 METAR KFIT 200652Z AUTO 27007KT 240V310 10SM CLR 02/M04 A2969 RMK AO2 SLP056
                 T00221044 =
2017-11-20 00:52 METAR KFIT 200552Z AUTO 10SM CLR 03/M04 A2966 RMK AO2 SLP047 T00281039 10050
                 20022 51014 =
2017-11-19 23:52 METAR KFIT 200452Z AUTO 28007G14KT 10SM CLR 03/M04 A2965 RMK AO2 SLP043
                 T00281039 401560028 =
2017-11-19 22:52 METAR KFIT 200352Z AUTO 28006G16KT 10SM CLR 03/M04 A2963 RMK AO2 SLP038
                 T00281039 =
2017-11-19 21:52 METAR KFIT 200252Z AUTO VRB05KT 10SM FEW045 03/M04 A2962 RMK AO2 SLP032
                 T00331039 51025 =
2017-11-19 20:52 METAR KFIT 200152Z AUTO 29008G19KT 10SM OVC045 04/M04 A2961 RMK AO2 SLP028
                 T00441044 =
2017-11-19 19:52 METAR KFIT 200052Z AUTO 29014KT 10SM OVC044 04/M04 A2957 RMK AO2 SLP016
                 T00441044 =
2017-11-19 18:52 METAR KFIT 192352Z AUTO 29012G22KT 10SM OVC039 05/M03 A2954 RMK AO2 PK WND
                 28027/2336 SLP006 T00501028 10100 20044 51045 =
2017-11-19 17:52 METAR KFIT 192252Z AUTO 28015G24KT 10SM SCT040 04/M03 A2951 RMK AO2 SLP994
                 T00441028 =
2017-11-19 16:52 METAR KFIT 192152Z AUTO 30013G23KT 10SM CLR 04/M03 A2946 RMK AO2 PK WND
                 29032/2131 SLP979 T00441028 =
2017-11-19 15:52 METAR KFIT 192052Z AUTO 30015G24KT 10SM FEW041 06/M02 A2941 RMK AO2 PK WND
                 26032/1953 SLP961 T00611022 53050 =
2017-11-19 14:52 METAR KFIT 191952Z AUTO 27021G33KT 10SM BKN041 07/M01 A2935 RMK AO2 PK WND
                 31034/1910 SLP942 T00721011 =
2017-11-19 13:52 METAR KFIT 191852Z AUTO 29024G34KT 10SM FEW037 08/M01 A2930 RMK AO2 PK WND
                 27037/1819 SLP924 T00831006 =
2017-11-19 12:52 METAR KFIT 191752Z AUTO 27024G35KT 10SM FEW036 09/01 A2926 RMK AO2 PK WND
                 26035/1751 SLP910 60010 T00940006 10156 20083 51046 =
2017-11-19 11:52 METAR KFIT 191652Z AUTO 28019G34KT 10SM SCT055 09/03 A2922 RMK AO2 PK WND
                 28040/1559 RAE1556B39E42 SLP897 P0000 T00940028 =
2017-11-19 10:52 METAR KFIT 191552Z AUTO 29021G34KT 10SM -RA FEW027 BKN049 OVC070 09/06 A2918 RMK
                 AO2 PK WND 28035/1541 WSHFT 1523 RAE13B39 SLP882 P0001 T00890056 =
2017-11-19 10:43 METAR KFIT 191543Z AUTO 28023G35KT 6SM -RA SCT027 BKN040 OVC060 09/06 A2917 RMK
                 AO2 PK WND 28035/1541 WSHFT 1523 RAE13B39 PRESRR P0001 T00940056 =
2017-11-19 09:52 METAR KFIT 191452Z AUTO 20009G19KT 170V230 4SM RA BR SCT055 OVC075 15/13 A2912
                 RMK AO2 RAB11 SLP863 P0006 60009 T01500128 56020 =
2017-11-19 09:20 METAR KFIT 191420Z AUTO 19007KT 4SM RA BR SCT023 BKN038 OVC046 16/14 A2912 RMK
                 AO2 RAB11 P0002 T01560139 =
2017-11-19 08:52 METAR KFIT 191352Z AUTO 17008KT 10SM FEW019 BKN024 OVC037 15/14 A2913 RMK AO2
                 RAE48 SLP866 P0002 T01500139 =
2017-11-19 07:52 METAR KFIT 191252Z AUTO 15005KT 8SM -RA OVC019 14/13 A2915 RMK AO2 SLP873 P0001
                 T01440133 =
2017-11-19 06:52 METAR KFIT 191152Z AUTO 18008KT 7SM -RA SCT019 BKN025 OVC070 14/13 A2918 RMK AO2
                 SLP883 P0004 60012 70020 T01390133 10139 20050 56032 =
2017-11-19 05:52 METAR KFIT 191052Z AUTO 00000KT 3SM -RA BR BKN020 OVC090 07/06 A2919 RMK AO2
                 SLP887 P0002 T00670061 =
2017-11-19 05:45 METAR KFIT 191045Z AUTO 00000KT 3SM -RA BR BKN020 OVC090 07/06 A2919 RMK AO2
                 P0002 T00670061 =
2017-11-19 05:33 METAR KFIT 191033Z AUTO 00000KT 4SM -RA BR SCT020 BKN050 OVC090 07/06 A2921 RMK
                 AO2 P0001 T00670056 =
2017-11-19 04:52 METAR KFIT 190952Z AUTO 00000KT 3SM -RA BR OVC021 06/06 A2925 RMK AO2 SLP907
                 P0005 T00610061 =
2017-11-19 04:17 METAR KFIT 190917Z AUTO 00000KT 4SM -RA BR FEW004 BKN021 OVC027 06/05 A2926 RMK
                 AO2 P0004 T00560050 =
2017-11-19 04:06 METAR KFIT 190906Z AUTO 00000KT 2SM RA BR FEW004 BKN022 OVC034 06/05 A2927 RMK
                 AO2 P0004 T00560050 =
2017-11-19 03:52 METAR KFIT 190852Z AUTO 00000KT 4SM -RA BR FEW004 BKN020 OVC029 06/05 A2928 RMK
                 AO2 RAB10 SLP916 P0001 60001 T00560050 56047 =
2017-11-19 03:28 METAR KFIT 190828Z AUTO 00000KT 4SM -RA BR SCT004 OVC020 06/05 A2929 RMK AO2
                 RAB10 P0001 T00560050 =
2017-11-19 03:03 METAR KFIT 190803Z AUTO 00000KT 5SM BR BKN004 OVC020 06/04 A2931 RMK AO2 PRESFR
                 T00560044 =
2017-11-19 02:52 METAR KFIT 190752Z AUTO 00000KT 5SM BR OVC005 06/04 A2932 RMK AO2 RAE0653 SLP930
                 P0000 T00560044 =

Support USWX by starting your Amazon purchase here.